createdAt,value
2022-10-22T00:02:21.034Z,12.85
2022-10-22T00:07:23.905Z,10.02
2022-10-22T00:12:27.090Z,11.27
2022-10-22T00:17:29.927Z,9.82
2022-10-22T00:22:32.629Z,9.43
2022-10-22T00:27:35.296Z,12.57
2022-10-22T00:32:38.089Z,9.10
2022-10-22T00:37:40.980Z,11.07
2022-10-22T00:42:44.012Z,13.27
2022-10-22T00:47:49.500Z,9.27
2022-10-22T00:52:52.334Z,9.75
2022-10-22T00:57:56.468Z,13.27
2022-10-22T01:02:59.287Z,9.40
2022-10-22T01:08:02.223Z,12.20
2022-10-22T01:13:19.710Z,7.88
2022-10-22T01:18:34.746Z,8.75
2022-10-22T01:23:46.404Z,7.07
2022-10-22T01:28:54.869Z,7.97
2022-10-22T01:33:58.108Z,9.27
2022-10-22T01:39:02.696Z,9.80
2022-10-22T01:44:05.515Z,9.57
2022-10-22T01:49:25.515Z,7.53
2022-10-22T01:54:28.240Z,14.70
2022-10-22T02:00:17.962Z,11.80
2022-10-22T02:05:39.987Z,17.38
2022-10-22T02:10:44.727Z,15.57
2022-10-22T02:15:47.662Z,15.30
2022-10-22T02:20:50.521Z,10.32
2022-10-22T02:26:00.811Z,7.05
2022-10-22T02:31:18.785Z,8.90
2022-10-22T02:36:22.321Z,8.38
2022-10-22T02:41:25.101Z,10.50
2022-10-22T02:46:27.874Z,10.13
2022-10-22T02:51:30.631Z,13.65
2022-10-22T02:56:33.836Z,11.80
2022-10-22T03:01:36.453Z,7.85
2022-10-22T03:06:39.123Z,9.20
2022-10-22T03:11:41.777Z,8.52
2022-10-22T03:16:44.620Z,8.63
2022-10-22T03:21:54.513Z,12.52
2022-10-22T03:26:58.242Z,13.85
2022-10-22T03:32:01.018Z,8.40
2022-10-22T03:37:03.788Z,9.07
2022-10-22T03:42:07.667Z,12.13
2022-10-22T03:47:10.660Z,10.27
2022-10-22T03:52:14.662Z,8.60
2022-10-22T03:57:17.410Z,7.57
2022-10-22T04:02:20.032Z,7.68
2022-10-22T04:07:22.734Z,6.93
2022-10-22T04:12:25.397Z,8.50
2022-10-22T04:17:34.210Z,11.90
2022-10-22T04:22:37.410Z,6.35
2022-10-22T04:27:40.342Z,11.32
2022-10-22T04:32:43.151Z,8.70
2022-10-22T04:37:45.975Z,14.02
2022-10-22T04:42:48.638Z,11.57
2022-10-22T04:47:51.330Z,15.52
2022-10-22T04:52:54.125Z,13.07
2022-10-22T04:57:56.799Z,6.82
2022-10-22T05:02:59.436Z,11.63
2022-10-22T05:08:02.151Z,7.65
2022-10-22T05:13:04.829Z,6.25
2022-10-22T05:18:07.485Z,7.88
2022-10-22T05:23:10.170Z,7.68
2022-10-22T05:28:12.845Z,12.23
2022-10-22T05:33:15.616Z,9.70
2022-10-22T05:38:19.216Z,12.70
2022-10-22T05:43:21.886Z,8.80
2022-10-22T05:48:24.601Z,14.07
2022-10-22T05:53:27.505Z,14.07
2022-10-22T05:58:30.788Z,12.48
2022-10-22T06:03:33.565Z,11.18
2022-10-22T06:08:36.276Z,10.63
2022-10-22T06:13:39.101Z,11.75
2022-10-22T06:18:41.960Z,12.18
2022-10-22T06:23:44.866Z,11.20
2022-10-22T06:28:47.669Z,8.02
2022-10-22T06:33:50.535Z,14.27
2022-10-22T06:38:54.558Z,9.23
2022-10-22T06:43:58.057Z,9.25
2022-10-22T06:49:03.389Z,11.48
2022-10-22T06:54:06.159Z,9.48
2022-10-22T06:59:08.856Z,10.65
2022-10-22T07:04:11.905Z,20.67
2022-10-22T07:09:14.934Z,11.15
2022-10-22T07:14:17.950Z,13.25
2022-10-22T07:19:20.593Z,11.23
2022-10-22T07:24:23.513Z,16.75
2022-10-22T07:29:26.286Z,15.60
2022-10-22T07:34:28.997Z,14.25
2022-10-22T07:39:31.560Z,10.80
2022-10-22T07:44:34.241Z,13.45
2022-10-22T07:49:36.938Z,10.88
2022-10-22T07:54:39.737Z,9.25
2022-10-22T07:59:42.440Z,9.57
2022-10-22T08:04:45.085Z,9.05
2022-10-22T08:09:47.802Z,6.22
2022-10-22T08:14:50.549Z,10.07
2022-10-22T08:19:53.255Z,12.07
2022-10-22T08:24:55.994Z,14.65
2022-10-22T08:29:58.781Z,15.43
2022-10-22T08:35:01.526Z,16.90
2022-10-22T08:40:05.508Z,7.95
2022-10-22T08:45:19.151Z,13.57
2022-10-22T08:50:41.675Z,12.07
2022-10-22T08:55:45.094Z,10.85
2022-10-22T09:00:55.515Z,9.95
2022-10-22T09:06:23.232Z,12.93
2022-10-22T09:11:31.523Z,15.93
2022-10-22T09:16:39.990Z,8.38
2022-10-22T09:21:57.839Z,11.68
2022-10-22T09:27:00.756Z,13.77
2022-10-22T09:32:03.481Z,13.48
2022-10-22T09:37:08.521Z,11.50
2022-10-22T09:42:13.728Z,9.75
2022-10-22T09:48:00.447Z,11.43
2022-10-22T09:53:02.505Z,11.32
2022-10-22T09:58:05.353Z,23.00
2022-10-22T10:03:13.421Z,9.98
2022-10-22T10:08:17.181Z,14.13
2022-10-22T10:13:41.484Z,13.57
2022-10-22T10:19:12.046Z,6.10
2022-10-22T10:24:21.759Z,13.15
2022-10-22T10:30:01.851Z,9.50
2022-10-22T10:35:27.182Z,15.13
2022-10-22T10:40:41.630Z,12.32
2022-10-22T10:45:55.801Z,15.90
2022-10-22T10:51:25.080Z,12.40
2022-10-22T10:56:42.137Z,10.95
2022-10-22T11:02:10.782Z,12.07
2022-10-22T11:07:34.191Z,18.30
2022-10-22T11:12:43.074Z,8.65
2022-10-22T11:17:47.287Z,11.10
2022-10-22T11:23:18.085Z,11.25
2022-10-22T11:28:42.445Z,8.30
2022-10-22T11:34:31.918Z,6.63
2022-10-22T11:39:54.127Z,8.50
2022-10-22T11:45:01.194Z,9.10
2022-10-22T11:50:26.626Z,8.65
2022-10-22T11:55:46.851Z,15.13
2022-10-22T12:00:50.386Z,12.77
2022-10-22T12:06:16.010Z,11.27
2022-10-22T12:11:38.323Z,11.48
2022-10-22T12:16:57.809Z,15.75
2022-10-22T12:22:20.264Z,14.90
2022-10-22T12:27:25.870Z,12.55
2022-10-22T12:32:41.592Z,12.40
2022-10-22T12:37:44.857Z,6.90
2022-10-22T12:42:52.730Z,10.07
2022-10-22T12:48:00.357Z,9.85
2022-10-22T12:53:02.923Z,10.60
2022-10-22T12:58:07.270Z,8.23
2022-10-22T13:03:28.181Z,7.15
2022-10-22T13:08:30.943Z,7.65
2022-10-22T13:13:39.469Z,6.07
2022-10-22T13:18:42.536Z,7.30
2022-10-22T13:23:53.826Z,10.32
2022-10-22T13:28:57.782Z,8.98
2022-10-22T13:34:09.954Z,8.18
2022-10-22T13:39:20.035Z,7.35
2022-10-22T13:44:22.894Z,12.82
2022-10-22T13:49:25.593Z,11.60
2022-10-22T13:54:28.257Z,11.57
2022-10-22T13:59:30.899Z,9.82
2022-10-22T14:04:34.673Z,12.23
2022-10-22T14:09:37.336Z,18.15
2022-10-22T14:14:39.974Z,13.45
2022-10-22T14:19:45.179Z,14.15
2022-10-22T14:24:48.076Z,15.93
2022-10-22T14:29:51.135Z,14.75
2022-10-22T14:34:53.882Z,19.10
2022-10-22T14:40:01.947Z,12.82
2022-10-22T14:45:06.821Z,15.10
2022-10-22T14:50:10.260Z,12.18
2022-10-22T14:55:14.921Z,17.30
2022-10-22T15:00:18.986Z,16.47
2022-10-22T15:05:22.150Z,16.42
2022-10-22T15:10:24.955Z,14.13
2022-10-22T15:15:31.627Z,13.38
2022-10-22T15:20:40.618Z,9.70
2022-10-22T15:25:44.548Z,15.80
2022-10-22T15:30:56.462Z,14.02
2022-10-22T15:35:59.357Z,14.85
2022-10-22T15:41:07.570Z,12.73
2022-10-22T15:46:18.316Z,14.85
2022-10-22T15:51:21.708Z,13.65
2022-10-22T15:56:25.635Z,14.70
2022-10-22T16:01:28.618Z,13.40
2022-10-22T16:06:37.272Z,10.55
2022-10-22T16:11:40.911Z,13.20
2022-10-22T16:16:45.938Z,13.10
2022-10-22T16:21:53.028Z,10.20
2022-10-22T16:26:56.008Z,10.77
2022-10-22T16:31:58.711Z,9.20
2022-10-22T16:37:01.414Z,11.23
2022-10-22T16:42:04.284Z,13.98
2022-10-22T16:47:07.019Z,15.52
2022-10-22T16:52:09.665Z,11.13
2022-10-22T16:57:12.706Z,11.52
2022-10-22T17:02:15.450Z,13.20
2022-10-22T17:07:18.093Z,10.43
2022-10-22T17:12:20.781Z,13.27
2022-10-22T17:17:23.455Z,13.15
2022-10-22T17:22:26.563Z,15.25
2022-10-22T17:27:29.235Z,15.80
2022-10-22T17:32:31.982Z,17.65
2022-10-22T17:37:35.380Z,18.05
2022-10-22T17:42:38.134Z,18.67
2022-10-22T17:47:41.216Z,19.48
2022-10-22T17:52:44.357Z,18.63
2022-10-22T17:57:47.145Z,19.08
2022-10-22T18:02:49.799Z,17.55
2022-10-22T18:07:55.887Z,20.67
2022-10-22T18:12:58.579Z,21.05
2022-10-22T18:18:01.231Z,21.08
2022-10-22T18:23:04.064Z,20.63
2022-10-22T18:28:06.822Z,19.38
2022-10-22T18:33:12.208Z,23.35
2022-10-22T18:38:14.914Z,19.40
2022-10-22T18:43:18.264Z,17.73
2022-10-22T18:48:23.294Z,17.83
2022-10-22T18:53:26.036Z,17.65
2022-10-22T18:58:28.720Z,22.38
2022-10-22T19:03:31.389Z,21.23
2022-10-22T19:08:35.353Z,21.23
2022-10-22T19:13:38.196Z,18.88
2022-10-22T19:18:40.895Z,19.00
2022-10-22T19:28:54.797Z,23.55
2022-10-22T19:33:58.266Z,24.27
2022-10-22T19:39:02.169Z,26.83
2022-10-22T19:44:05.150Z,25.88
2022-10-22T19:49:07.724Z,26.75
2022-10-22T19:54:18.810Z,22.17
2022-10-22T19:59:23.057Z,21.88
2022-10-22T20:04:28.338Z,26.00
2022-10-22T20:09:31.063Z,22.27
2022-10-22T20:14:34.081Z,23.55
2022-10-22T20:19:36.806Z,24.52
2022-10-22T20:24:39.575Z,27.55
2022-10-22T20:29:42.285Z,23.38
2022-10-22T20:34:44.948Z,19.33
2022-10-22T20:39:50.161Z,21.13
2022-10-22T20:44:52.856Z,18.02
2022-10-22T20:49:55.479Z,19.95
2022-10-22T20:54:58.155Z,21.30
2022-10-22T21:00:00.931Z,17.08
2022-10-22T21:05:03.874Z,27.77
2022-10-22T21:10:06.924Z,20.77
2022-10-22T21:15:12.601Z,18.65
2022-10-22T21:20:17.132Z,17.50
2022-10-22T21:25:21.416Z,22.08
2022-10-22T21:30:24.163Z,17.65
2022-10-22T21:35:26.803Z,17.88
2022-10-22T21:40:29.832Z,20.10
2022-10-22T21:45:32.396Z,17.15
2022-10-22T21:50:35.112Z,17.65
2022-10-22T21:55:39.662Z,18.27
2022-10-22T22:00:42.362Z,16.88
2022-10-22T22:05:45.053Z,15.18
2022-10-22T22:10:47.797Z,18.80
2022-10-22T22:15:50.483Z,13.38
2022-10-22T22:20:53.203Z,17.15
2022-10-22T22:26:00.291Z,16.48
2022-10-22T22:31:03.385Z,18.17
2022-10-22T22:36:06.390Z,17.58
2022-10-22T22:41:09.881Z,18.67
2022-10-22T22:46:13.050Z,20.08
2022-10-22T22:51:16.439Z,15.82
2022-10-22T22:56:22.221Z,17.63
2022-10-22T23:01:30.451Z,20.40
2022-10-22T23:06:36.695Z,15.50
2022-10-22T23:11:40.107Z,18.08
2022-10-22T23:16:46.559Z,15.98
2022-10-22T23:21:51.689Z,15.68
2022-10-22T23:26:55.977Z,16.88
2022-10-22T23:32:03.489Z,16.08
2022-10-22T23:37:06.680Z,15.75
2022-10-22T23:42:09.457Z,17.05
2022-10-22T23:47:12.169Z,18.83
2022-10-22T23:52:14.823Z,16.33
2022-10-22T23:57:17.506Z,14.75
